Time;durP1;ratioP1;P1;durP2;ratioP2;P2;SDS_P1;SDS_P2;PMS_P1;PMS_P2;Temp;Humidity;BMP_temperature;BMP_pressure;BME280_temperature;BME280_humidity;BME280_pressure;Samples;Min_cycle;Max_cycle;Signal;HPM_P1;HPM_P2
2022/08/15 00:02:08;;;;;;;8.83;4.97;;;23.00;96.00;;;;;;5098312;28;20452;-83
2022/08/15 00:04:34;;;;;;;7.20;4.80;;;22.90;96.70;;;;;;5095929;28;20176;-83
2022/08/15 00:07:00;;;;;;;9.77;4.80;;;22.90;97.90;;;;;;5102537;28;20479;-83
2022/08/15 00:09:25;;;;;;;7.73;4.70;;;22.90;98.50;;;;;;5097907;28;20789;-83
2022/08/15 00:11:54;;;;;;;5.93;4.47;;;22.90;98.60;;;;;;5093922;28;20175;-83
2022/08/15 00:14:29;;;;;;;4.87;4.40;;;22.90;98.70;;;;;;5099501;28;20225;-83
2022/08/15 00:16:56;;;;;;;9.03;5.20;;;22.90;99.30;;;;;;5097426;28;20436;-83
2022/08/15 00:19:26;;;;;;;9.07;4.30;;;22.90;99.60;;;;;;5098176;28;20402;-84
2022/08/15 00:21:59;;;;;;;11.20;4.00;;;22.90;99.60;;;;;;5102968;28;20433;-83
2022/08/15 00:24:27;;;;;;;6.60;5.10;;;22.90;99.90;;;;;;5093998;28;20521;-83
2022/08/15 00:26:54;;;;;;;10.50;4.40;;;22.90;99.80;;;;;;5078206;28;20474;-83
2022/08/15 00:29:22;;;;;;;7.37;5.20;;;22.90;99.90;;;;;;5096628;28;20430;-83
2022/08/15 00:31:48;;;;;;;7.73;3.80;;;22.80;99.90;;;;;;5092250;28;20438;-83
2022/08/15 00:34:16;;;;;;;10.10;3.97;;;22.80;99.90;;;;;;5096798;28;20956;-83
2022/08/15 00:36:43;;;;;;;5.97;4.53;;;22.80;99.90;;;;;;5098836;28;20818;-83
2022/08/15 00:39:09;;;;;;;6.67;4.53;;;22.80;99.90;;;;;;5097478;28;20929;-84
2022/08/15 00:41:41;;;;;;;8.43;4.73;;;22.80;99.90;;;;;;5096366;28;20806;-83
2022/08/15 00:44:19;;;;;;;10.53;5.57;;;22.80;99.90;;;;;;5098907;28;20517;-82
2022/08/15 00:46:49;;;;;;;7.80;4.60;;;22.80;99.90;;;;;;5094629;28;20463;-83
2022/08/15 00:49:15;;;;;;;7.40;4.00;;;22.70;99.90;;;;;;5079670;28;20824;-83
2022/08/15 00:51:46;;;;;;;8.40;4.70;;;22.80;99.90;;;;;;5090116;28;20423;-83
2022/08/15 00:54:19;;;;;;;5.50;4.47;;;22.70;99.90;;;;;;5098474;28;20461;-83
2022/08/15 00:56:52;;;;;;;9.30;4.53;;;22.70;99.90;;;;;;5098676;28;20390;-82
2022/08/15 00:59:27;;;;;;;5.70;5.10;;;22.70;99.90;;;;;;5095419;28;20430;-83
2022/08/15 01:01:54;;;;;;;11.30;4.43;;;22.60;99.90;;;;;;5095086;28;20444;-83
2022/08/15 01:04:20;;;;;;;7.03;5.00;;;22.60;99.90;;;;;;5090009;28;20819;-83
2022/08/15 01:06:47;;;;;;;7.97;4.33;;;22.40;99.90;;;;;;5090993;28;20537;-83
2022/08/15 01:09:15;;;;;;;7.17;5.20;;;22.40;99.90;;;;;;5108334;28;20463;-84
2022/08/15 01:11:44;;;;;;;8.93;4.63;;;22.40;99.90;;;;;;5119088;28;20487;-84
2022/08/15 01:14:10;;;;;;;6.17;4.73;;;22.40;99.90;;;;;;5119261;28;21124;-83
2022/08/15 01:16:41;;;;;;;7.50;4.63;;;22.40;99.90;;;;;;5119846;28;20412;-83
2022/08/15 01:19:26;;;;;;;6.33;4.13;;;22.50;99.90;;;;;;5118341;28;20429;-83
2022/08/15 01:22:08;;;;;;;7.70;4.93;;;22.40;99.90;;;;;;5117689;28;20415;-83
2022/08/15 01:24:50;;;;;;;17.93;7.53;;;22.40;99.90;;;;;;5118540;28;20440;-84
2022/08/15 01:27:17;;;;;;;20.17;9.90;;;22.40;99.90;;;;;;5119316;28;20540;-84
2022/08/15 01:29:43;;;;;;;11.73;7.60;;;22.40;99.90;;;;;;5118686;28;20432;-82
2022/08/15 01:32:09;;;;;;;6.93;5.10;;;22.30;99.90;;;;;;5105201;28;20426;-82
2022/08/15 01:34:35;;;;;;;9.70;4.30;;;22.20;99.90;;;;;;5089679;28;20435;-82
2022/08/15 01:37:01;;;;;;;11.20;4.60;;;22.10;99.90;;;;;;5089699;28;20818;-83
2022/08/15 01:39:50;;;;;;;6.60;4.47;;;22.10;99.90;;;;;;5096460;28;20189;-83
2022/08/15 01:42:25;;;;;;;11.17;4.90;;;22.10;99.90;;;;;;5097028;28;20571;-83
2022/08/15 01:44:56;;;;;;;7.27;4.67;;;22.00;99.90;;;;;;5094939;28;20520;-83
2022/08/15 01:47:42;;;;;;;6.00;4.37;;;22.00;99.90;;;;;;5079212;28;20470;-83
2022/08/15 01:50:11;;;;;;;7.33;4.53;;;22.00;99.90;;;;;;5089988;28;20426;-83
2022/08/15 01:52:48;;;;;;;9.83;5.20;;;22.00;99.90;;;;;;5109105;28;20444;-82
2022/08/15 01:55:16;;;;;;;4.90;4.40;;;22.00;99.90;;;;;;5088096;28;20430;-82
2022/08/15 01:57:41;;;;;;;11.30;5.20;;;21.90;99.90;;;;;;5079287;28;20442;-83
2022/08/15 02:00:09;;;;;;;8.00;4.70;;;21.90;99.90;;;;;;5096861;28;20801;-82
2022/08/15 02:02:35;;;;;;;7.67;4.50;;;21.90;99.90;;;;;;5096712;28;20248;-83
2022/08/15 02:05:01;;;;;;;5.20;4.60;;;21.90;99.90;;;;;;5102740;28;20433;-83
2022/08/15 02:07:28;;;;;;;7.17;4.17;;;21.90;99.90;;;;;;5101383;28;20465;-85
2022/08/15 02:09:55;;;;;;;6.63;3.97;;;21.90;99.90;;;;;;5100874;28;20436;-84
2022/08/15 02:12:31;;;;;;;5.53;4.00;;;21.90;99.90;;;;;;5100862;28;20433;-85
2022/08/15 02:14:58;;;;;;;5.80;4.70;;;21.90;99.90;;;;;;5085027;28;21167;-84
2022/08/15 02:17:24;;;;;;;7.03;4.20;;;21.90;99.90;;;;;;5098499;28;21144;-83
2022/08/15 02:19:51;;;;;;;5.57;4.13;;;21.80;99.90;;;;;;5097690;28;20429;-82
2022/08/15 02:22:22;;;;;;;6.60;4.17;;;21.80;99.90;;;;;;5112710;28;20183;-84
2022/08/15 02:24:48;;;;;;;5.33;4.60;;;21.80;99.90;;;;;;5122172;28;20604;-84
2022/08/15 02:27:14;;;;;;;11.23;4.90;;;21.70;99.90;;;;;;5121418;28;20547;-83
2022/08/15 02:29:41;;;;;;;7.37;4.50;;;21.70;99.90;;;;;;5114286;27;20198;-84
2022/08/15 02:32:14;;;;;;;6.30;4.60;;;21.70;99.90;;;;;;5094927;28;20425;-84
2022/08/15 02:34:42;;;;;;;5.67;4.43;;;21.60;99.90;;;;;;5093930;28;20457;-82
2022/08/15 02:37:08;;;;;;;5.40;3.93;;;21.60;99.90;;;;;;5099468;28;20509;-84
2022/08/15 02:39:35;;;;;;;11.03;4.23;;;21.60;99.90;;;;;;5101900;28;20408;-82
2022/08/15 02:42:00;;;;;;;6.10;4.03;;;21.60;99.90;;;;;;5100218;28;20430;-83
2022/08/15 02:44:26;;;;;;;5.57;4.37;;;21.60;99.90;;;;;;5089671;28;20438;-82
2022/08/15 02:46:54;;;;;;;9.23;4.33;;;21.60;99.90;;;;;;5088968;28;20252;-82
2022/08/15 02:49:20;;;;;;;7.50;4.90;;;21.60;99.90;;;;;;5080952;28;20410;-82
2022/08/15 02:51:46;;;;;;;7.17;4.73;;;21.60;99.90;;;;;;5081596;28;20403;-82
2022/08/15 02:54:13;;;;;;;6.00;4.33;;;21.60;99.90;;;;;;5082994;28;20430;-81
2022/08/15 02:56:39;;;;;;;7.03;4.40;;;;;;;;;;5099247;28;20442;-82
2022/08/15 02:59:07;;;;;;;5.17;4.63;;;21.60;99.90;;;;;;5098268;27;20464;-82
2022/08/15 03:01:37;;;;;;;5.50;3.60;;;21.60;99.90;;;;;;5097951;28;21171;-82
2022/08/15 03:04:08;;;;;;;7.30;4.70;;;21.60;99.90;;;;;;5096225;28;20701;-83
2022/08/15 03:06:35;;;;;;;9.53;4.77;;;21.50;99.90;;;;;;5095618;28;20445;-82
2022/08/15 03:09:06;;;;;;;5.30;3.73;;;21.50;99.90;;;;;;5098852;28;20509;-83
2022/08/15 03:11:33;;;;;;;7.73;3.70;;;21.50;99.90;;;;;;5099970;28;20432;-84
2022/08/15 03:13:59;;;;;;;4.43;3.77;;;21.50;99.90;;;;;;5099561;28;20485;-84
2022/08/15 03:16:25;;;;;;;4.77;4.03;;;21.40;99.90;;;;;;5098882;28;20520;-84
2022/08/15 03:18:50;;;;;;;7.30;3.90;;;21.40;99.90;;;;;;5092777;28;20212;-82
2022/08/15 03:21:19;;;;;;;7.20;3.80;;;21.30;99.90;;;;;;5096922;28;20440;-82
2022/08/15 03:23:48;;;;;;;4.77;3.67;;;21.30;99.90;;;;;;5093886;28;20178;-83
2022/08/15 03:26:16;;;;;;;5.60;3.87;;;21.30;99.90;;;;;;5102406;28;20458;-82
2022/08/15 03:28:42;;;;;;;6.80;3.80;;;21.20;99.90;;;;;;5097939;28;20481;-82
2022/08/15 03:31:07;;;;;;;6.03;3.63;;;21.00;99.90;;;;;;5097795;28;20425;-83
2022/08/15 03:33:35;;;;;;;6.83;4.40;;;21.20;99.90;;;;;;5096098;28;20195;-81
2022/08/15 03:36:01;;;;;;;6.87;4.30;;;21.00;99.90;;;;;;5089438;28;20216;-82
2022/08/15 03:38:27;;;;;;;5.83;3.90;;;21.00;99.90;;;;;;5093562;28;20444;-83
2022/08/15 03:40:53;;;;;;;4.57;3.47;;;20.90;99.90;;;;;;5100364;28;20861;-81
2022/08/15 03:43:22;;;;;;;4.40;3.30;;;20.90;99.90;;;;;;5101708;28;20464;-83
2022/08/15 03:45:56;;;;;;;6.30;3.97;;;20.80;99.90;;;;;;5099752;28;20599;-83
2022/08/15 03:48:23;;;;;;;4.67;3.83;;;20.80;99.90;;;;;;5098100;28;20446;-82
2022/08/15 03:50:52;;;;;;;10.90;4.10;;;20.70;99.90;;;;;;5093031;28;20423;-82
2022/08/15 03:53:18;;;;;;;8.97;4.30;;;20.70;99.90;;;;;;5090355;28;20437;-82
2022/08/15 03:55:44;;;;;;;8.53;4.33;;;20.70;99.90;;;;;;5103334;28;20413;-83
2022/08/15 03:58:10;;;;;;;8.87;4.10;;;20.60;99.90;;;;;;5099241;28;20467;-82
2022/08/15 04:00:46;;;;;;;4.13;3.70;;;20.60;99.90;;;;;;5095624;28;20168;-82
2022/08/15 04:03:27;;;;;;;5.70;3.27;;;20.60;99.90;;;;;;5091268;28;20422;-82
2022/08/15 04:05:57;;;;;;;4.83;4.10;;;20.60;99.90;;;;;;5091191;28;20503;-82
2022/08/15 04:08:24;;;;;;;5.60;3.33;;;20.60;99.90;;;;;;5089864;28;20441;-83
2022/08/15 04:10:53;;;;;;;5.50;3.33;;;20.60;99.90;;;;;;5101535;27;20448;-81
2022/08/15 04:13:24;;;;;;;5.60;3.33;;;20.50;99.90;;;;;;5096420;28;20422;-82
2022/08/15 04:15:50;;;;;;;6.00;3.40;;;20.40;99.90;;;;;;5097294;28;20422;-81
2022/08/15 04:18:16;;;;;;;5.40;4.17;;;20.40;99.90;;;;;;5093154;28;20461;-80
2022/08/15 04:20:42;;;;;;;4.20;3.77;;;20.40;99.90;;;;;;5088571;28;20437;-82
2022/08/15 04:23:08;;;;;;;7.67;3.90;;;20.40;99.90;;;;;;5089843;28;20171;-81
2022/08/15 04:25:40;;;;;;;4.97;3.53;;;20.30;99.90;;;;;;5099717;28;20190;-82
2022/08/15 04:28:07;;;;;;;3.33;3.03;;;20.30;99.90;;;;;;5096966;28;20836;-81
2022/08/15 04:30:36;;;;;;;4.77;3.27;;;20.30;99.90;;;;;;5096199;28;20518;-81
2022/08/15 04:33:11;;;;;;;4.10;3.27;;;20.20;99.90;;;;;;5098968;28;20452;-80
2022/08/15 04:35:39;;;;;;;4.43;3.93;;;20.20;99.90;;;;;;5087093;28;20429;-82
2022/08/15 04:38:04;;;;;;;3.90;3.07;;;20.20;99.90;;;;;;5089276;28;20471;-82
2022/08/15 04:40:30;;;;;;;4.23;3.40;;;20.10;99.90;;;;;;5100432;28;20520;-81
2022/08/15 04:43:03;;;;;;;5.00;3.37;;;19.90;99.90;;;;;;5058151;28;20583;-79
2022/08/15 04:45:31;;;;;;;5.27;3.50;;;19.90;99.90;;;;;;5059576;28;20457;-80
2022/08/15 04:47:59;;;;;;;3.63;3.13;;;19.90;99.90;;;;;;5058179;28;20486;-80
2022/08/15 04:50:24;;;;;;;5.40;3.23;;;19.80;99.90;;;;;;5057520;28;21034;-79
2022/08/15 04:52:55;;;;;;;6.30;3.97;;;19.70;99.90;;;;;;5056511;28;20440;-80
2022/08/15 04:55:24;;;;;;;7.30;3.33;;;19.70;99.90;;;;;;5060107;28;20191;-78
2022/08/15 04:57:50;;;;;;;4.63;3.57;;;19.80;99.90;;;;;;5065573;28;20458;-81
2022/08/15 05:00:18;;;;;;;4.67;2.97;;;19.80;99.90;;;;;;5057993;28;20446;-81
2022/08/15 05:02:57;;;;;;;3.67;3.27;;;19.70;99.90;;;;;;5064454;28;20470;-80
2022/08/15 05:05:23;;;;;;;3.53;3.10;;;19.80;99.90;;;;;;5057129;28;20478;-79
2022/08/15 05:07:49;;;;;;;6.20;4.23;;;19.80;99.90;;;;;;5056801;28;21104;-80
2022/08/15 05:10:15;;;;;;;3.90;2.50;;;19.80;99.90;;;;;;5060852;28;20435;-78
2022/08/15 05:12:40;;;;;;;4.67;3.23;;;19.70;99.90;;;;;;5058132;28;20193;-80
2022/08/15 05:15:07;;;;;;;3.83;3.40;;;19.70;99.90;;;;;;5059116;28;20570;-81
2022/08/15 05:17:32;;;;;;;5.17;3.20;;;19.80;99.90;;;;;;5059102;28;20551;-81
2022/08/15 05:19:58;;;;;;;3.60;3.30;;;19.70;99.90;;;;;;5072025;28;20475;-81
2022/08/15 05:22:23;;;;;;;4.40;3.40;;;19.70;99.90;;;;;;5056050;28;20274;-79
2022/08/15 05:24:49;;;;;;;5.77;3.30;;;19.70;99.90;;;;;;5060728;28;20597;-81
2022/08/15 05:27:14;;;;;;;3.70;3.03;;;19.70;99.90;;;;;;5057925;28;20211;-80
2022/08/15 05:29:42;;;;;;;4.53;3.13;;;19.70;99.90;;;;;;5057965;28;20225;-80
2022/08/15 05:32:09;;;;;;;4.90;2.90;;;19.70;99.90;;;;;;5055832;28;20803;-80
2022/08/15 05:34:34;;;;;;;8.13;4.27;;;19.70;99.90;;;;;;5053092;28;20977;-81
2022/08/15 05:37:01;;;;;;;5.50;3.90;;;19.70;99.90;;;;;;5054269;28;20451;-79
2022/08/15 05:39:30;;;;;;;6.03;3.70;;;19.70;99.90;;;;;;5053684;28;20192;-80
2022/08/15 05:42:29;;;;;;;3.93;2.93;;;19.70;99.90;;;;;;5065662;28;21253;-81
2022/08/15 05:45:08;;;;;;;5.23;3.30;;;19.70;99.90;;;;;;5056761;28;20438;-79
2022/08/15 05:47:47;;;;;;;4.73;3.53;;;19.70;99.90;;;;;;5056599;28;20450;-79
2022/08/15 05:50:20;;;;;;;5.13;3.10;;;19.80;99.90;;;;;;5063667;28;20435;-82
2022/08/15 05:52:57;;;;;;;4.50;4.00;;;19.70;99.90;;;;;;5049197;28;20423;-78
2022/08/15 05:55:50;;;;;;;3.73;2.93;;;19.80;99.90;;;;;;5043300;28;20434;-82
2022/08/15 05:58:27;;;;;;;4.23;3.10;;;19.80;99.90;;;;;;5042460;28;20806;-82
2022/08/15 06:01:02;;;;;;;4.27;3.73;;;19.80;99.90;;;;;;5041614;28;20448;-81
2022/08/15 06:03:29;;;;;;;4.97;3.53;;;19.80;99.90;;;;;;5042171;28;20427;-80
2022/08/15 06:06:02;;;;;;;6.20;3.63;;;19.90;99.90;;;;;;5043119;28;20471;-81
2022/08/15 06:08:31;;;;;;;9.70;3.57;;;20.10;99.90;;;;;;5039506;28;20914;-80
2022/08/15 06:11:23;;;;;;;6.50;4.17;;;20.10;99.90;;;;;;5042801;28;20485;-81
2022/08/15 06:13:56;;;;;;;5.80;3.57;;;20.20;99.90;;;;;;5054436;28;20477;-81
2022/08/15 06:16:27;;;;;;;6.50;4.60;;;20.20;99.90;;;;;;5057955;28;20848;-80
2022/08/15 06:18:55;;;;;;;4.30;3.10;;;20.20;99.90;;;;;;5044113;28;20845;-80
2022/08/15 06:21:31;;;;;;;4.93;3.50;;;20.20;99.90;;;;;;5043490;28;20447;-82
2022/08/15 06:24:16;;;;;;;3.50;2.90;;;20.20;99.90;;;;;;5041773;28;20423;-81
2022/08/15 06:26:59;;;;;;;5.50;3.00;;;20.10;99.90;;;;;;5042918;28;20510;-81
2022/08/15 06:29:30;;;;;;;4.80;3.00;;;20.20;99.90;;;;;;5044126;28;20424;-81
2022/08/15 06:32:11;;;;;;;6.33;3.73;;;20.30;99.90;;;;;;5038707;28;20852;-81
2022/08/15 06:35:05;;;;;;;5.97;3.70;;;20.40;99.90;;;;;;5035768;28;20423;-81
2022/08/15 06:37:43;;;;;;;6.00;3.80;;;20.50;99.90;;;;;;5039494;28;20509;-82
2022/08/15 06:40:37;;;;;;;5.40;3.40;;;20.60;99.90;;;;;;5041994;28;20436;-82
2022/08/15 06:43:07;;;;;;;6.70;4.30;;;20.40;99.90;;;;;;5046471;28;20464;-81
2022/08/15 06:45:38;;;;;;;4.23;3.30;;;20.50;99.90;;;;;;5043035;28;20509;-81
2022/08/15 06:48:11;;;;;;;4.97;3.33;;;20.30;99.90;;;;;;5043678;28;20525;-79
2022/08/15 06:50:40;;;;;;;8.60;3.60;;;20.30;99.90;;;;;;5041482;28;20491;-80
2022/08/15 06:53:16;;;;;;;6.13;4.57;;;20.30;99.90;;;;;;5040596;28;20496;-81
2022/08/15 06:56:16;;;;;;;4.03;3.17;;;20.40;99.90;;;;;;5042500;28;21288;-82
2022/08/15 06:59:10;;;;;;;6.43;3.30;;;20.20;99.90;;;;;;5042440;28;20478;-80
2022/08/15 07:02:13;;;;;;;9.53;3.57;;;20.20;99.90;;;;;;5038060;28;20475;-81
2022/08/15 07:05:05;;;;;;;5.77;3.27;;;20.30;99.90;;;;;;5041352;28;20432;-82
2022/08/15 07:07:49;;;;;;;5.30;3.50;;;20.50;99.90;;;;;;5037070;28;20487;-80
2022/08/15 07:10:43;;;;;;;5.03;3.83;;;20.80;99.90;;;;;;5041068;28;20427;-80
2022/08/15 07:13:20;;;;;;;6.77;3.70;;;20.80;99.90;;;;;;5037379;28;20468;-81
2022/08/15 07:15:52;;;;;;;4.03;2.90;;;20.90;99.90;;;;;;5040991;28;20423;-81
2022/08/15 07:18:41;;;;;;;4.30;2.70;;;21.10;99.90;;;;;;5044221;28;20456;-80
2022/08/15 07:21:10;;;;;;;3.87;3.47;;;21.10;99.90;;;;;;5041143;28;20571;-82
2022/08/15 07:23:57;;;;;;;4.83;3.20;;;20.90;99.90;;;;;;5041408;28;20959;-80
2022/08/15 07:26:28;;;;;;;4.23;3.50;;;20.70;99.90;;;;;;5048635;28;20474;-82
2022/08/15 07:29:00;;;;;;;7.57;3.37;;;20.50;99.90;;;;;;5039105;28;20459;-81
2022/08/15 07:31:33;;;;;;;4.33;3.60;;;20.50;99.90;;;;;;5045636;28;20466;-82
2022/08/15 07:34:05;;;;;;;3.67;3.00;;;20.30;99.90;;;;;;5039976;28;20443;-82
2022/08/15 07:36:34;;;;;;;6.20;3.53;;;20.30;99.90;;;;;;5041615;28;20447;-82
2022/08/15 07:39:19;;;;;;;3.70;2.87;;;20.20;99.90;;;;;;5040103;28;20459;-81
2022/08/15 07:41:45;;;;;;;3.20;2.70;;;20.10;99.90;;;;;;5041117;28;20464;-81
2022/08/15 07:44:24;;;;;;;7.07;3.70;;;20.00;99.90;;;;;;5042533;28;20431;-80
2022/08/15 07:47:01;;;;;;;8.10;3.20;;;20.20;99.90;;;;;;5042494;28;20424;-82
2022/08/15 07:49:34;;;;;;;2.93;2.40;;;20.20;99.90;;;;;;5041171;28;20424;-80
2022/08/15 07:52:15;;;;;;;4.47;2.27;;;20.00;99.90;;;;;;5041793;28;20844;-82
2022/08/15 07:54:46;;;;;;;3.90;3.00;;;20.10;99.90;;;;;;5041373;28;20431;-81
2022/08/15 07:57:33;;;;;;;9.93;3.00;;;20.20;99.90;;;;;;5041708;28;20470;-82
2022/08/15 08:00:09;;;;;;;4.07;2.50;;;20.40;99.90;;;;;;5037747;28;20528;-82
2022/08/15 08:03:01;;;;;;;7.13;3.27;;;20.50;99.90;;;;;;5041895;28;20811;-80
2022/08/15 08:05:36;;;;;;;4.20;3.00;;;20.70;99.90;;;;;;5042806;28;20522;-79
2022/08/15 08:08:05;;;;;;;8.13;2.97;;;21.10;99.90;;;;;;5041145;28;20456;-80
2022/08/15 08:10:42;;;;;;;3.33;2.97;;;21.30;99.90;;;;;;5040582;28;20443;-81
2022/08/15 08:13:39;;;;;;;4.80;2.80;;;21.90;99.90;;;;;;5038433;28;20481;-79
2022/08/15 08:16:35;;;;;;;2.70;2.30;;;23.00;99.90;;;;;;5038687;28;20452;-81
2022/08/15 08:19:20;;;;;;;3.70;2.60;;;24.40;99.90;;;;;;5036354;28;20775;-81
2022/08/15 08:22:02;;;;;;;3.67;2.40;;;25.50;99.90;;;;;;5039255;28;20987;-82
2022/08/15 08:24:41;;;;;;;4.23;2.03;;;28.20;99.90;;;;;;5040955;28;20438;-80
2022/08/15 08:27:29;;;;;;;3.40;2.80;;;29.40;99.90;;;;;;5039788;28;20438;-81
2022/08/15 08:30:12;;;;;;;2.50;2.30;;;29.10;99.90;;;;;;5040465;28;20419;-81
2022/08/15 08:32:52;;;;;;;4.80;2.93;;;29.60;96.60;;;;;;5036636;28;20428;-80
2022/08/15 08:35:45;;;;;;;2.70;2.50;;;27.40;98.10;;;;;;5038383;28;20525;-82
2022/08/15 08:38:28;;;;;;;2.63;2.20;;;28.00;99.30;;;;;;5041907;28;20451;-79
2022/08/15 08:41:33;;;;;;;5.37;2.70;;;28.30;97.60;;;;;;5042653;28;20440;-82
2022/08/15 08:44:23;;;;;;;4.30;2.60;;;25.60;99.30;;;;;;5041438;28;20420;-82
2022/08/15 08:47:17;;;;;;;2.20;1.50;;;26.00;99.90;;;;;;5039483;28;20474;-81
2022/08/15 08:50:17;;;;;;;2.90;1.90;;;26.10;99.90;;;;;;5039478;28;20418;-80
2022/08/15 08:53:07;;;;;;;2.10;1.80;;;27.40;99.30;;;;;;5040451;28;20413;-81
2022/08/15 08:56:03;;;;;;;2.20;1.87;;;28.10;96.90;;;;;;5041979;28;20782;-81
2022/08/15 08:58:44;;;;;;;2.60;1.83;;;29.90;93.00;;;;;;5040308;28;20584;-81
2022/08/15 09:01:14;;;;;;;1.90;1.80;;;29.50;92.20;;;;;;5038963;28;20509;-82
2022/08/15 09:03:46;;;;;;;2.10;1.83;;;30.30;89.20;;;;;;5038129;28;20504;-82
2022/08/15 09:06:15;;;;;;;2.87;2.07;;;31.20;80.10;;;;;;5041795;28;20426;-81
2022/08/15 09:08:57;;;;;;;3.73;2.17;;;30.40;83.20;;;;;;5040491;28;20474;-81
2022/08/15 09:11:30;;;;;;;2.30;1.90;;;28.50;83.30;;;;;;5038856;28;20445;-81
2022/08/15 09:14:05;;;;;;;2.20;2.00;;;29.70;87.30;;;;;;5040763;28;20507;-82
2022/08/15 09:16:37;;;;;;;2.53;2.00;;;30.50;85.60;;;;;;5040172;28;20427;-78
2022/08/15 09:19:14;;;;;;;4.27;1.93;;;29.20;82.50;;;;;;5060901;22;20487;-87
2022/08/15 09:21:43;;;;;;;2.40;1.87;;;28.20;87.70;;;;;;5008935;28;20982;-86
2022/08/15 09:24:09;;;;;;;3.37;2.63;;;29.70;88.00;;;;;;4996284;28;20410;-85
2022/08/15 09:27:02;;;;;;;3.07;2.33;;;29.50;83.10;;;;;;4995643;28;20413;-84
2022/08/15 09:29:37;;;;;;;2.80;2.30;;;30.50;79.90;;;;;;5004648;28;20864;-86
2022/08/15 09:32:21;;;;;;;2.43;2.23;;;31.10;80.00;;;;;;5007917;28;20414;-87
2022/08/15 09:35:24;;;;;;;3.93;2.40;;;31.00;71.70;;;;;;5006035;28;20402;-86
2022/08/15 09:38:04;;;;;;;4.93;2.77;;;30.60;77.10;;;;;;5012716;28;20457;-82
2022/08/15 09:41:18;;;;;;;3.40;2.90;;;30.60;73.20;;;;;;5010319;28;20473;-83
2022/08/15 09:44:21;;;;;;;2.83;2.63;;;29.50;78.50;;;;;;5004670;28;20520;-86
2022/08/15 09:47:08;;;;;;;2.63;2.43;;;29.60;79.20;;;;;;5003683;28;20429;-85
2022/08/15 09:49:52;;;;;;;2.50;2.30;;;29.30;78.90;;;;;;5010583;28;20505;-84
2022/08/15 09:52:27;;;;;;;3.20;2.03;;;30.50;76.50;;;;;;5001929;28;20406;-87
2022/08/15 09:54:59;;;;;;;3.70;2.47;;;29.50;76.60;;;;;;4999464;28;20841;-87
2022/08/15 09:57:45;;;;;;;2.60;2.40;;;29.90;80.50;;;;;;4999275;28;20425;-84
2022/08/15 10:00:16;;;;;;;3.20;2.57;;;31.60;76.80;;;;;;4994902;28;20454;-84
2022/08/15 10:02:45;;;;;;;3.40;3.10;;;30.10;77.60;;;;;;4992957;28;20471;-86
2022/08/15 10:05:29;;;;;;;3.97;2.90;;;29.20;76.20;;;;;;5000455;28;20414;-89
2022/08/15 10:07:59;;;;;;;2.90;2.57;;;27.00;84.10;;;;;;5001420;28;20412;-86
2022/08/15 10:10:36;;;;;;;2.83;2.57;;;27.90;84.90;;;;;;4999422;28;20442;-87
2022/08/15 10:13:10;;;;;;;3.03;2.70;;;29.00;80.30;;;;;;4989759;28;20438;-87
2022/08/15 10:15:43;;;;;;;7.97;2.93;;;28.50;77.80;;;;;;5000477;28;20445;-87
2022/08/15 10:18:30;;;;;;;3.70;2.83;;;29.50;81.80;;;;;;4995481;28;20431;-88
2022/08/15 10:20:55;;;;;;;4.57;2.73;;;28.90;82.30;;;;;;4996796;28;20920;-87
2022/08/15 10:23:31;;;;;;;6.83;3.13;;;28.70;79.70;;;;;;5010374;28;20465;-84
2022/08/15 10:26:29;;;;;;;3.30;2.90;;;27.90;80.30;;;;;;4997855;28;20206;-86
2022/08/15 10:29:09;;;;;;;2.43;2.23;;;26.90;85.40;;;;;;4999957;28;20496;-86
2022/08/15 10:31:51;;;;;;;2.63;2.43;;;26.00;88.20;;;;;;4999643;28;20823;-85
2022/08/15 10:34:44;;;;;;;5.20;2.60;;;26.00;90.50;;;;;;4999503;28;20432;-83
2022/08/15 10:37:24;;;;;;;3.00;2.30;;;25.80;90.90;;;;;;4998342;28;20426;-85
2022/08/15 10:40:17;;;;;;;2.20;1.87;;;26.00;91.00;;;;;;5003317;28;20434;-82
2022/08/15 10:42:46;;;;;;;5.53;2.40;;;25.60;91.60;;;;;;5002402;28;20451;-86
2022/08/15 10:45:45;;;;;;;3.50;2.30;;;25.90;92.10;;;;;;5000865;28;20427;-83
2022/08/15 10:48:49;;;;;;;4.10;3.13;;;26.30;91.10;;;;;;5005957;28;20407;-85
2022/08/15 10:51:34;;;;;;;3.77;2.60;;;26.60;90.00;;;;;;5001333;28;20474;-81
2022/08/15 10:54:26;;;;;;;2.70;2.00;;;26.80;90.10;;;;;;4994159;28;20423;-87
2022/08/15 10:56:56;;;;;;;2.13;1.93;;;26.10;88.40;;;;;;4962200;28;20746;-87
2022/08/15 10:59:43;;;;;;;7.17;2.40;;;25.50;91.30;;;;;;5002739;28;20439;-84
2022/08/15 11:02:26;;;;;;;3.37;2.20;;;26.00;92.30;;;;;;4998950;28;20893;-87
2022/08/15 11:05:03;;;;;;;2.87;2.57;;;26.20;90.70;;;;;;5003345;28;20410;-86
2022/08/15 11:07:28;;;;;;;2.77;2.57;;;26.10;91.20;;;;;;4997238;28;20779;-82
2022/08/15 11:10:06;;;;;;;4.13;2.07;;;25.90;91.60;;;;;;4999327;28;20518;-89
2022/08/15 11:12:36;;;;;;;2.50;2.30;;;25.60;91.30;;;;;;4998072;28;20171;-82
2022/08/15 11:15:13;;;;;;;3.20;2.37;;;25.80;92.10;;;;;;4998020;28;20463;-85
2022/08/15 11:17:45;;;;;;;3.60;2.57;;;26.00;91.80;;;;;;4997370;28;20432;-83
2022/08/15 11:20:16;;;;;;;3.50;2.07;;;26.00;90.90;;;;;;5000763;28;20943;-86
2022/08/15 11:22:58;;;;;;;2.93;2.50;;;26.00;90.70;;;;;;5003154;28;20462;-84
2022/08/15 11:25:31;;;;;;;5.07;2.50;;;26.20;90.90;;;;;;5012974;28;20418;-83
2022/08/15 11:28:04;;;;;;;3.10;2.50;;;26.10;90.10;;;;;;4998946;28;21110;-87
2022/08/15 11:30:34;;;;;;;3.80;2.30;;;26.00;90.70;;;;;;5000426;28;20447;-87
2022/08/15 11:33:19;;;;;;;2.50;2.30;;;26.40;90.60;;;;;;4999754;28;20433;-82
2022/08/15 11:35:46;;;;;;;4.07;2.57;;;26.70;90.30;;;;;;4998453;28;20417;-82
2022/08/15 11:38:16;;;;;;;2.70;2.50;;;27.20;89.30;;;;;;4998631;28;20430;-88
2022/08/15 11:40:48;;;;;;;5.10;2.80;;;26.90;88.00;;;;;;5014565;28;20443;-83
2022/08/15 11:43:16;;;;;;;2.40;1.93;;;27.40;89.00;;;;;;4999791;28;20460;-86
2022/08/15 11:45:48;;;;;;;2.50;2.30;;;27.50;85.50;;;;;;5006517;28;20424;-88
2022/08/15 11:48:24;;;;;;;2.67;2.47;;;26.80;89.20;;;;;;5000645;28;20434;-82
2022/08/15 11:51:27;;;;;;;4.40;2.57;;;26.90;90.10;;;;;;4999684;28;20456;-86
2022/08/15 11:54:07;;;;;;;5.83;3.10;;;27.30;88.80;;;;;;4998768;28;20422;-80
2022/08/15 11:56:55;;;;;;;2.90;2.70;;;27.20;86.70;;;;;;4999668;28;20395;-85
2022/08/15 11:59:28;;;;;;;3.60;2.60;;;27.10;88.10;;;;;;4998439;28;20432;-87
2022/08/15 12:02:28;;;;;;;6.77;2.70;;;27.30;86.70;;;;;;4997203;28;20628;-83
2022/08/15 12:04:54;;;;;;;4.97;2.80;;;27.20;85.10;;;;;;5014770;28;20499;-84
2022/08/15 12:07:27;;;;;;;3.30;2.60;;;26.90;85.40;;;;;;4998869;28;20466;-87
2022/08/15 12:10:04;;;;;;;6.47;2.20;;;26.90;87.10;;;;;;4998396;28;20462;-88
2022/08/15 12:12:42;;;;;;;2.87;2.40;;;27.20;87.70;;;;;;4998863;28;20401;-87
2022/08/15 12:15:15;;;;;;;4.83;3.17;;;27.70;85.00;;;;;;4996685;28;20416;-85
2022/08/15 12:17:59;;;;;;;4.50;3.03;;;27.70;84.10;;;;;;4997715;28;20419;-85
2022/08/15 12:21:03;;;;;;;4.87;3.00;;;27.20;82.10;;;;;;4996898;28;20451;-82
2022/08/15 12:23:28;;;;;;;2.63;2.27;;;26.80;85.90;;;;;;4977854;28;20692;-86
2022/08/15 12:26:00;;;;;;;4.20;3.40;;;26.60;84.80;;;;;;4978693;28;20440;-87
2022/08/15 12:28:28;;;;;;;3.30;3.00;;;26.70;85.70;;;;;;4976887;28;20200;-85
2022/08/15 12:31:11;;;;;;;4.50;3.20;;;27.00;84.70;;;;;;4992307;28;20416;-87
2022/08/15 12:33:37;;;;;;;5.00;3.23;;;26.80;82.60;;;;;;4997809;28;20940;-85
2022/08/15 12:36:02;;;;;;;4.13;3.00;;;26.80;83.30;;;;;;4997974;28;20408;-86
2022/08/15 12:38:31;;;;;;;4.37;2.83;;;26.90;84.60;;;;;;4997259;28;20411;-84
2022/08/15 12:40:58;;;;;;;3.23;2.50;;;26.90;85.50;;;;;;5000342;28;20545;-85
2022/08/15 12:43:24;;;;;;;4.70;3.47;;;27.20;84.40;;;;;;4999660;28;20409;-85
2022/08/15 12:45:49;;;;;;;3.40;2.87;;;27.30;82.50;;;;;;4995542;28;20409;-84
2022/08/15 12:48:29;;;;;;;4.23;2.83;;;27.70;83.60;;;;;;4995337;28;20220;-87
2022/08/15 12:50:55;;;;;;;7.83;2.87;;;27.60;81.40;;;;;;4997637;28;20230;-88
2022/08/15 12:53:21;;;;;;;4.43;2.90;;;27.80;83.80;;;;;;4997817;28;20420;-86
2022/08/15 12:55:48;;;;;;;4.50;3.20;;;28.10;82.60;;;;;;4996570;28;20465;-88
2022/08/15 12:58:16;;;;;;;3.43;3.13;;;28.40;80.50;;;;;;5001599;28;20916;-86
2022/08/15 13:00:42;;;;;;;4.70;3.53;;;28.50;78.40;;;;;;4999651;28;20440;-85
2022/08/15 13:03:23;;;;;;;4.40;3.60;;;28.50;78.00;;;;;;5017692;28;20458;-85
2022/08/15 13:05:59;;;;;;;7.33;2.90;;;27.80;77.30;;;;;;5009884;28;20420;-85
2022/08/15 13:08:24;;;;;;;4.90;3.90;;;27.70;78.90;;;;;;4999196;28;20440;-82
2022/08/15 13:10:50;;;;;;;5.87;3.37;;;27.90;77.60;;;;;;5004215;28;20488;-86
2022/08/15 13:13:16;;;;;;;3.57;2.83;;;27.80;76.60;;;;;;5006005;28;20586;-87
2022/08/15 13:15:43;;;;;;;4.67;3.60;;;28.00;77.60;;;;;;5005882;28;20619;-83
2022/08/15 13:18:15;;;;;;;6.23;4.00;;;28.70;78.00;;;;;;5001145;28;20487;-83
2022/08/15 13:23:40;;;;;;;3.80;3.33;;;27.30;78.70;;;;;;4993456;28;20465;-83
2022/08/15 13:26:13;;;;;;;5.80;3.60;;;27.40;80.10;;;;;;4998615;28;20394;-86